Capitol Logistics 2141

Operating for AJT



KMIA
Miami International Airport
Miami, Florida
TJSJ
Luis Munoz Marin International Airport
San Juan,

Activity Log

Date Flight Route Aircraft Duration
04/13/2021 CPX2141 SKIPS2 SKIPS Y290 BEANO B763 2h 10m
09/28/2019 CPX239 SKIPS2 SKIPS Y290 BEANO B763 2h 54m
06/18/2019 CPX239 SKIPS2 SKIPS Y290 BEANO B763 2h 18m
05/26/2019 CPX239 SKIPS2 SKIPS Y290 BEANO B763 2h 20m
04/06/2019 CPX239 SKIPS2 SKIPS Y290 BEANO B763 2h 18m
02/16/2019 CPX239 SKIPS2 SKIPS Y290 BEANO BEANO3 B763 2h 14m

Route Details

Aircraft Information
Primary: Boeing 767-300BDSF
Backup: Boeing 757-200SF
Route Data
Distance: 909nm
Duration: 2h 00m
Recm'd Route: SKIPS2 SKIPS Y290 BEANO
Origin Wx: KMIA 180253Z 27005KT 10SM CLR 25/19 A2992 RMK AO2 SLP131 T02500194 51013 $
Dest. Wx: TJSJ 180256Z 00000KT 10SM CLR 27/21 A3004 RMK AO2 SLP173 T02670206 50009
Notes: